sensor_id;sensor_type;location;lat;lon;timestamp;temperature;humidity
39347;DHT22;26262;49.836;6.632;2023-03-01T00:01:04;-1.80;99.90
39347;DHT22;26262;49.836;6.632;2023-03-01T00:03:29;-1.90;99.90
39347;DHT22;26262;49.836;6.632;2023-03-01T00:05:55;-2.00;99.90
39347;DHT22;26262;49.836;6.632;2023-03-01T00:08:20;-2.00;99.90
39347;DHT22;26262;49.836;6.632;2023-03-01T00:10:46;-2.20;99.90
39347;DHT22;26262;49.836;6.632;2023-03-01T00:13:11;-2.20;99.90
39347;DHT22;26262;49.836;6.632;2023-03-01T00:15:40;-2.30;99.90
39347;DHT22;26262;49.836;6.632;2023-03-01T00:18:07;-2.40;99.90
39347;DHT22;26262;49.836;6.632;2023-03-01T00:20:33;-2.40;99.90
39347;DHT22;26262;49.836;6.632;2023-03-01T00:22:59;-2.40;99.90
39347;DHT22;26262;49.836;6.632;2023-03-01T00:25:24;-2.30;99.90
39347;DHT22;26262;49.836;6.632;2023-03-01T00:27:49;-2.20;99.90
39347;DHT22;26262;49.836;6.632;2023-03-01T00:30:15;-2.60;99.90
39347;DHT22;26262;49.836;6.632;2023-03-01T00:32:41;-2.40;99.90
39347;DHT22;26262;49.836;6.632;2023-03-01T00:35:06;-2.50;99.90
39347;DHT22;26262;49.836;6.632;2023-03-01T00:37:32;-2.60;99.90
39347;DHT22;26262;49.836;6.632;2023-03-01T00:39:57;-2.60;99.90
39347;DHT22;26262;49.836;6.632;2023-03-01T00:42:23;-2.60;99.90
39347;DHT22;26262;49.836;6.632;2023-03-01T00:44:48;-2.60;99.90
39347;DHT22;26262;49.836;6.632;2023-03-01T00:47:13;-2.50;99.90
39347;DHT22;26262;49.836;6.632;2023-03-01T00:49:39;-2.60;99.90
39347;DHT22;26262;49.836;6.632;2023-03-01T00:52:04;-2.60;99.90
39347;DHT22;26262;49.836;6.632;2023-03-01T00:54:30;-2.40;99.90
39347;DHT22;26262;49.836;6.632;2023-03-01T00:56:56;-2.50;99.90
39347;DHT22;26262;49.836;6.632;2023-03-01T00:59:21;-2.30;99.90
39347;DHT22;26262;49.836;6.632;2023-03-01T01:01:46;-2.50;99.90
39347;DHT22;26262;49.836;6.632;2023-03-01T01:04:12;-2.40;99.90
39347;DHT22;26262;49.836;6.632;2023-03-01T01:06:39;-2.20;99.90
39347;DHT22;26262;49.836;6.632;2023-03-01T01:09:08;-2.30;99.90
39347;DHT22;26262;49.836;6.632;2023-03-01T01:11:34;-2.30;99.90
39347;DHT22;26262;49.836;6.632;2023-03-01T01:14:01;-2.50;99.90
39347;DHT22;26262;49.836;6.632;2023-03-01T01:16:27;-2.40;99.90
39347;DHT22;26262;49.836;6.632;2023-03-01T01:18:53;-2.60;99.90
39347;DHT22;26262;49.836;6.632;2023-03-01T01:21:20;-2.80;99.90
39347;DHT22;26262;49.836;6.632;2023-03-01T01:23:46;-2.70;99.90
39347;DHT22;26262;49.836;6.632;2023-03-01T01:26:13;-2.90;99.90
39347;DHT22;26262;49.836;6.632;2023-03-01T01:28:39;-2.70;99.90
39347;DHT22;26262;49.836;6.632;2023-03-01T01:31:04;-3.00;99.90
39347;DHT22;26262;49.836;6.632;2023-03-01T01:33:30;-3.00;99.90
39347;DHT22;26262;49.836;6.632;2023-03-01T01:35:55;-2.80;99.90
39347;DHT22;26262;49.836;6.632;2023-03-01T01:38:21;-3.00;99.90
39347;DHT22;26262;49.836;6.632;2023-03-01T01:40:47;-2.80;99.90
39347;DHT22;26262;49.836;6.632;2023-03-01T01:43:17;-3.00;99.90
39347;DHT22;26262;49.836;6.632;2023-03-01T01:45:43;-2.90;99.90
39347;DHT22;26262;49.836;6.632;2023-03-01T01:48:10;-2.70;99.90
39347;DHT22;26262;49.836;6.632;2023-03-01T01:50:38;-2.60;99.90
39347;DHT22;26262;49.836;6.632;2023-03-01T01:53:17;-2.60;99.90
39347;DHT22;26262;49.836;6.632;2023-03-01T01:55:45;-2.60;99.90
39347;DHT22;26262;49.836;6.632;2023-03-01T01:58:13;-2.50;99.90
39347;DHT22;26262;49.836;6.632;2023-03-01T02:00:40;-2.40;99.90
39347;DHT22;26262;49.836;6.632;2023-03-01T02:03:08;-2.40;99.90
39347;DHT22;26262;49.836;6.632;2023-03-01T02:08:00;-2.40;99.90
39347;DHT22;26262;49.836;6.632;2023-03-01T02:10:26;-2.30;99.90
39347;DHT22;26262;49.836;6.632;2023-03-01T02:12:52;-2.30;99.90
39347;DHT22;26262;49.836;6.632;2023-03-01T02:15:17;-2.30;99.90
39347;DHT22;26262;49.836;6.632;2023-03-01T02:17:43;-2.20;99.90
39347;DHT22;26262;49.836;6.632;2023-03-01T02:20:13;-2.20;99.90
39347;DHT22;26262;49.836;6.632;2023-03-01T02:22:42;-2.10;99.90
39347;DHT22;26262;49.836;6.632;2023-03-01T02:28:08;-2.10;99.90
39347;DHT22;26262;49.836;6.632;2023-03-01T02:30:26;-2.20;99.90
39347;DHT22;26262;49.836;6.632;2023-03-01T02:32:52;-2.30;99.90
39347;DHT22;26262;49.836;6.632;2023-03-01T02:35:18;-2.20;99.90
39347;DHT22;26262;49.836;6.632;2023-03-01T02:37:44;-2.20;99.90
39347;DHT22;26262;49.836;6.632;2023-03-01T02:40:14;-2.30;99.90
39347;DHT22;26262;49.836;6.632;2023-03-01T02:42:52;-2.40;99.90
39347;DHT22;26262;49.836;6.632;2023-03-01T02:45:19;-2.70;99.90
39347;DHT22;26262;49.836;6.632;2023-03-01T02:47:44;-2.70;99.90
39347;DHT22;26262;49.836;6.632;2023-03-01T02:52:57;-2.90;99.90
39347;DHT22;26262;49.836;6.632;2023-03-01T02:55:26;-2.70;99.90
39347;DHT22;26262;49.836;6.632;2023-03-01T02:57:52;-2.70;99.90
39347;DHT22;26262;49.836;6.632;2023-03-01T03:00:20;-2.70;99.90
39347;DHT22;26262;49.836;6.632;2023-03-01T03:02:47;-2.90;99.90
39347;DHT22;26262;49.836;6.632;2023-03-01T03:05:15;-2.80;99.90
39347;DHT22;26262;49.836;6.632;2023-03-01T03:07:41;-2.60;99.90
39347;DHT22;26262;49.836;6.632;2023-03-01T03:10:09;-2.90;99.90
39347;DHT22;26262;49.836;6.632;2023-03-01T03:12:36;-2.80;99.90
39347;DHT22;26262;49.836;6.632;2023-03-01T03:15:02;-2.70;99.90
39347;DHT22;26262;49.836;6.632;2023-03-01T03:17:35;-2.60;99.90
39347;DHT22;26262;49.836;6.632;2023-03-01T03:20:00;-2.60;99.90
39347;DHT22;26262;49.836;6.632;2023-03-01T03:22:26;-2.60;99.90
39347;DHT22;26262;49.836;6.632;2023-03-01T03:24:53;-2.60;99.90
39347;DHT22;26262;49.836;6.632;2023-03-01T03:27:19;-2.80;99.90
39347;DHT22;26262;49.836;6.632;2023-03-01T03:29:44;-2.70;99.90
39347;DHT22;26262;49.836;6.632;2023-03-01T03:32:10;-2.70;99.90
39347;DHT22;26262;49.836;6.632;2023-03-01T03:34:35;-2.70;99.90
39347;DHT22;26262;49.836;6.632;2023-03-01T03:37:01;-2.80;99.90
39347;DHT22;26262;49.836;6.632;2023-03-01T03:39:26;-2.80;99.90
39347;DHT22;26262;49.836;6.632;2023-03-01T03:41:52;-2.70;99.90
39347;DHT22;26262;49.836;6.632;2023-03-01T03:44:18;-2.80;99.90
39347;DHT22;26262;49.836;6.632;2023-03-01T03:46:43;-2.60;99.90
39347;DHT22;26262;49.836;6.632;2023-03-01T03:49:09;-2.80;99.90
39347;DHT22;26262;49.836;6.632;2023-03-01T03:51:34;-2.80;99.90
39347;DHT22;26262;49.836;6.632;2023-03-01T03:54:00;-2.80;99.90
39347;DHT22;26262;49.836;6.632;2023-03-01T03:56:25;-2.60;99.90
39347;DHT22;26262;49.836;6.632;2023-03-01T03:58:51;-2.60;99.90
39347;DHT22;26262;49.836;6.632;2023-03-01T04:01:17;-2.70;99.90
39347;DHT22;26262;49.836;6.632;2023-03-01T04:03:42;-2.80;99.90
39347;DHT22;26262;49.836;6.632;2023-03-01T04:06:11;-2.60;99.90
39347;DHT22;26262;49.836;6.632;2023-03-01T04:08:37;-2.60;99.90
39347;DHT22;26262;49.836;6.632;2023-03-01T04:11:03;-2.60;99.90
39347;DHT22;26262;49.836;6.632;2023-03-01T04:13:49;-2.50;99.90
39347;DHT22;26262;49.836;6.632;2023-03-01T04:16:15;-2.40;99.90
39347;DHT22;26262;49.836;6.632;2023-03-01T04:18:40;-2.40;99.90
39347;DHT22;26262;49.836;6.632;2023-03-01T04:21:05;-2.30;99.90
39347;DHT22;26262;49.836;6.632;2023-03-01T04:23:31;-2.40;99.90
39347;DHT22;26262;49.836;6.632;2023-03-01T04:25:57;-2.40;99.90
39347;DHT22;26262;49.836;6.632;2023-03-01T04:28:24;-2.30;99.90
39347;DHT22;26262;49.836;6.632;2023-03-01T04:30:51;-2.50;99.90
39347;DHT22;26262;49.836;6.632;2023-03-01T04:33:17;-2.40;99.90
39347;DHT22;26262;49.836;6.632;2023-03-01T04:35:42;-2.30;99.90
39347;DHT22;26262;49.836;6.632;2023-03-01T04:38:08;-2.40;99.90
39347;DHT22;26262;49.836;6.632;2023-03-01T04:40:33;-2.30;99.90
39347;DHT22;26262;49.836;6.632;2023-03-01T04:42:59;-2.20;99.90
39347;DHT22;26262;49.836;6.632;2023-03-01T04:45:24;-2.50;99.90
39347;DHT22;26262;49.836;6.632;2023-03-01T04:47:50;-2.50;99.90
39347;DHT22;26262;49.836;6.632;2023-03-01T04:50:17;-2.30;99.90
39347;DHT22;26262;49.836;6.632;2023-03-01T04:52:45;-2.30;99.90
39347;DHT22;26262;49.836;6.632;2023-03-01T04:55:11;-2.40;99.90
39347;DHT22;26262;49.836;6.632;2023-03-01T04:57:36;-2.40;99.90
39347;DHT22;26262;49.836;6.632;2023-03-01T05:00:03;-2.30;99.90
39347;DHT22;26262;49.836;6.632;2023-03-01T05:02:48;-2.30;99.90
39347;DHT22;26262;49.836;6.632;2023-03-01T05:05:19;-2.30;99.90
39347;DHT22;26262;49.836;6.632;2023-03-01T05:07:44;-2.20;99.90
39347;DHT22;26262;49.836;6.632;2023-03-01T05:10:10;-2.20;99.90
39347;DHT22;26262;49.836;6.632;2023-03-01T05:12:35;-2.10;99.90
39347;DHT22;26262;49.836;6.632;2023-03-01T05:15:03;-2.20;99.90
39347;DHT22;26262;49.836;6.632;2023-03-01T05:17:32;-2.20;99.90
39347;DHT22;26262;49.836;6.632;2023-03-01T05:19:58;-2.20;99.90
39347;DHT22;26262;49.836;6.632;2023-03-01T05:22:25;-2.20;99.90
39347;DHT22;26262;49.836;6.632;2023-03-01T05:24:50;-2.20;99.90
39347;DHT22;26262;49.836;6.632;2023-03-01T05:27:15;-2.60;99.90
39347;DHT22;26262;49.836;6.632;2023-03-01T05:29:41;-2.50;99.90
39347;DHT22;26262;49.836;6.632;2023-03-01T05:32:06;-2.40;99.90
39347;DHT22;26262;49.836;6.632;2023-03-01T05:34:34;-2.40;99.90
39347;DHT22;26262;49.836;6.632;2023-03-01T05:37:01;-2.40;99.90
39347;DHT22;26262;49.836;6.632;2023-03-01T05:39:27;-2.30;99.90
39347;DHT22;26262;49.836;6.632;2023-03-01T05:41:54;-2.50;99.90
39347;DHT22;26262;49.836;6.632;2023-03-01T05:44:19;-2.40;99.90
39347;DHT22;26262;49.836;6.632;2023-03-01T05:46:45;-2.60;99.90
39347;DHT22;26262;49.836;6.632;2023-03-01T05:49:11;-2.70;99.90
39347;DHT22;26262;49.836;6.632;2023-03-01T05:51:39;-2.70;99.90
39347;DHT22;26262;49.836;6.632;2023-03-01T05:54:04;-2.80;99.90
39347;DHT22;26262;49.836;6.632;2023-03-01T05:56:32;-2.70;99.90
39347;DHT22;26262;49.836;6.632;2023-03-01T05:58:57;-2.80;99.90
39347;DHT22;26262;49.836;6.632;2023-03-01T06:01:23;-2.70;99.90
39347;DHT22;26262;49.836;6.632;2023-03-01T06:03:48;-2.90;99.90
39347;DHT22;26262;49.836;6.632;2023-03-01T06:06:14;-3.00;99.90
39347;DHT22;26262;49.836;6.632;2023-03-01T06:08:39;-3.00;99.90
39347;DHT22;26262;49.836;6.632;2023-03-01T06:11:05;-3.00;99.90
39347;DHT22;26262;49.836;6.632;2023-03-01T06:13:32;-3.00;99.90
39347;DHT22;26262;49.836;6.632;2023-03-01T06:15:57;-3.00;99.90
39347;DHT22;26262;49.836;6.632;2023-03-01T06:18:23;-2.90;99.90
39347;DHT22;26262;49.836;6.632;2023-03-01T06:20:55;-2.90;99.90
39347;DHT22;26262;49.836;6.632;2023-03-01T06:23:21;-2.80;99.90
39347;DHT22;26262;49.836;6.632;2023-03-01T06:25:46;-2.70;99.90
39347;DHT22;26262;49.836;6.632;2023-03-01T06:28:12;-2.70;99.90
39347;DHT22;26262;49.836;6.632;2023-03-01T06:30:37;-2.70;99.90
39347;DHT22;26262;49.836;6.632;2023-03-01T06:33:03;-2.70;99.90
39347;DHT22;26262;49.836;6.632;2023-03-01T06:35:28;-2.80;99.90
39347;DHT22;26262;49.836;6.632;2023-03-01T06:37:57;-2.70;99.90
39347;DHT22;26262;49.836;6.632;2023-03-01T06:40:23;-2.60;99.90
39347;DHT22;26262;49.836;6.632;2023-03-01T06:42:49;-2.80;99.90
39347;DHT22;26262;49.836;6.632;2023-03-01T06:45:15;-2.70;99.90
39347;DHT22;26262;49.836;6.632;2023-03-01T06:47:40;-2.60;99.90
39347;DHT22;26262;49.836;6.632;2023-03-01T06:50:06;-2.80;99.90
39347;DHT22;26262;49.836;6.632;2023-03-01T06:52:31;-2.60;99.90
39347;DHT22;26262;49.836;6.632;2023-03-01T06:54:57;-2.50;99.90
39347;DHT22;26262;49.836;6.632;2023-03-01T06:57:22;-2.70;99.90
39347;DHT22;26262;49.836;6.632;2023-03-01T06:59:48;-2.60;99.90
39347;DHT22;26262;49.836;6.632;2023-03-01T07:02:14;-2.60;99.90
39347;DHT22;26262;49.836;6.632;2023-03-01T07:04:40;-2.40;99.90
39347;DHT22;26262;49.836;6.632;2023-03-01T07:07:06;-2.50;99.90
39347;DHT22;26262;49.836;6.632;2023-03-01T07:09:31;-2.40;99.90
39347;DHT22;26262;49.836;6.632;2023-03-01T07:11:57;-2.30;99.90
39347;DHT22;26262;49.836;6.632;2023-03-01T07:14:22;-2.30;99.90
39347;DHT22;26262;49.836;6.632;2023-03-01T07:16:51;-2.20;99.90
39347;DHT22;26262;49.836;6.632;2023-03-01T07:19:16;-2.20;99.90
39347;DHT22;26262;49.836;6.632;2023-03-01T07:21:41;-2.10;99.90
39347;DHT22;26262;49.836;6.632;2023-03-01T07:24:07;-2.30;99.90
39347;DHT22;26262;49.836;6.632;2023-03-01T07:26:33;-2.10;99.90
39347;DHT22;26262;49.836;6.632;2023-03-01T07:28:59;-2.00;99.90
39347;DHT22;26262;49.836;6.632;2023-03-01T07:31:24;-1.90;99.90
39347;DHT22;26262;49.836;6.632;2023-03-01T07:33:53;-1.80;99.90
39347;DHT22;26262;49.836;6.632;2023-03-01T07:36:18;-1.80;99.90
39347;DHT22;26262;49.836;6.632;2023-03-01T07:38:44;-1.80;99.90
39347;DHT22;26262;49.836;6.632;2023-03-01T07:41:09;-1.80;99.90
39347;DHT22;26262;49.836;6.632;2023-03-01T07:43:34;-1.90;99.90
39347;DHT22;26262;49.836;6.632;2023-03-01T07:46:00;-1.90;99.90
39347;DHT22;26262;49.836;6.632;2023-03-01T07:48:26;-1.90;99.90
39347;DHT22;26262;49.836;6.632;2023-03-01T07:50:52;-1.90;99.90
39347;DHT22;26262;49.836;6.632;2023-03-01T07:53:17;-1.80;99.90
39347;DHT22;26262;49.836;6.632;2023-03-01T07:55:42;-1.70;99.90
39347;DHT22;26262;49.836;6.632;2023-03-01T07:58:08;-1.60;99.90
39347;DHT22;26262;49.836;6.632;2023-03-01T08:00:33;-1.50;99.90
39347;DHT22;26262;49.836;6.632;2023-03-01T08:03:02;-1.40;99.90
39347;DHT22;26262;49.836;6.632;2023-03-01T08:05:28;-1.40;99.90
39347;DHT22;26262;49.836;6.632;2023-03-01T08:07:53;-1.20;99.90
39347;DHT22;26262;49.836;6.632;2023-03-01T08:10:19;-1.10;99.90
39347;DHT22;26262;49.836;6.632;2023-03-01T08:12:45;-1.00;99.90
39347;DHT22;26262;49.836;6.632;2023-03-01T08:15:10;-0.80;99.90
39347;DHT22;26262;49.836;6.632;2023-03-01T08:17:36;-0.80;99.90
39347;DHT22;26262;49.836;6.632;2023-03-01T08:20:01;-0.70;99.90
39347;DHT22;26262;49.836;6.632;2023-03-01T08:22:28;-0.60;99.90
39347;DHT22;26262;49.836;6.632;2023-03-01T08:24:54;-0.50;99.90
39347;DHT22;26262;49.836;6.632;2023-03-01T08:27:21;-0.50;99.90
39347;DHT22;26262;49.836;6.632;2023-03-01T08:29:46;-0.30;99.90
39347;DHT22;26262;49.836;6.632;2023-03-01T08:32:12;-0.20;99.90
39347;DHT22;26262;49.836;6.632;2023-03-01T08:34:37;-0.10;99.90
39347;DHT22;26262;49.836;6.632;2023-03-01T08:37:03;0.00;99.90
39347;DHT22;26262;49.836;6.632;2023-03-01T08:39:28;0.00;99.90
39347;DHT22;26262;49.836;6.632;2023-03-01T08:41:54;0.10;99.90
39347;DHT22;26262;49.836;6.632;2023-03-01T08:44:19;0.20;99.90
39347;DHT22;26262;49.836;6.632;2023-03-01T08:46:46;0.20;99.90
39347;DHT22;26262;49.836;6.632;2023-03-01T08:49:13;0.30;99.90
39347;DHT22;26262;49.836;6.632;2023-03-01T08:51:39;0.40;99.90
39347;DHT22;26262;49.836;6.632;2023-03-01T08:54:10;0.40;99.90
39347;DHT22;26262;49.836;6.632;2023-03-01T08:56:36;0.40;99.90
39347;DHT22;26262;49.836;6.632;2023-03-01T08:59:02;0.50;99.90
39347;DHT22;26262;49.836;6.632;2023-03-01T09:01:27;0.60;99.90
39347;DHT22;26262;49.836;6.632;2023-03-01T09:03:53;0.70;99.90
39347;DHT22;26262;49.836;6.632;2023-03-01T09:06:18;0.70;99.90
39347;DHT22;26262;49.836;6.632;2023-03-01T09:08:45;0.80;99.90
39347;DHT22;26262;49.836;6.632;2023-03-01T09:11:12;0.90;99.90
39347;DHT22;26262;49.836;6.632;2023-03-01T09:13:38;0.90;99.90
39347;DHT22;26262;49.836;6.632;2023-03-01T09:16:05;1.00;99.90
39347;DHT22;26262;49.836;6.632;2023-03-01T09:18:30;1.00;99.90
39347;DHT22;26262;49.836;6.632;2023-03-01T09:23:27;1.30;99.90
39347;DHT22;26262;49.836;6.632;2023-03-01T09:25:53;1.50;99.90
39347;DHT22;26262;49.836;6.632;2023-03-01T09:28:18;1.60;99.90
39347;DHT22;26262;49.836;6.632;2023-03-01T09:30:43;1.70;99.90
39347;DHT22;26262;49.836;6.632;2023-03-01T09:33:09;1.80;99.90
39347;DHT22;26262;49.836;6.632;2023-03-01T09:35:40;2.00;99.90
39347;DHT22;26262;49.836;6.632;2023-03-01T09:38:11;2.20;99.90
39347;DHT22;26262;49.836;6.632;2023-03-01T09:40:37;2.30;99.90
39347;DHT22;26262;49.836;6.632;2023-03-01T09:43:54;2.50;99.90
39347;DHT22;26262;49.836;6.632;2023-03-01T09:45:54;2.70;99.90
39347;DHT22;26262;49.836;6.632;2023-03-01T09:48:21;2.90;99.90
39347;DHT22;26262;49.836;6.632;2023-03-01T09:50:49;3.10;99.90
39347;DHT22;26262;49.836;6.632;2023-03-01T09:53:31;3.20;99.90
39347;DHT22;26262;49.836;6.632;2023-03-01T09:58:54;3.50;99.90
39347;DHT22;26262;49.836;6.632;2023-03-01T10:01:38;3.70;99.90
39347;DHT22;26262;49.836;6.632;2023-03-01T10:04:11;4.00;99.90
39347;DHT22;26262;49.836;6.632;2023-03-01T10:06:38;4.40;99.90
39347;DHT22;26262;49.836;6.632;2023-03-01T10:11:30;5.20;99.90
39347;DHT22;26262;49.836;6.632;2023-03-01T10:19:03;6.50;99.90
39347;DHT22;26262;49.836;6.632;2023-03-01T10:21:28;6.90;99.90
39347;DHT22;26262;49.836;6.632;2023-03-01T10:24:01;7.30;99.90
39347;DHT22;26262;49.836;6.632;2023-03-01T10:26:55;7.60;97.70
39347;DHT22;26262;49.836;6.632;2023-03-01T10:29:20;7.70;96.60
39347;DHT22;26262;49.836;6.632;2023-03-01T10:31:49;8.00;96.00
39347;DHT22;26262;49.836;6.632;2023-03-01T10:34:19;8.30;95.60
39347;DHT22;26262;49.836;6.632;2023-03-01T10:36:50;8.70;96.20
39347;DHT22;26262;49.836;6.632;2023-03-01T10:39:20;8.90;94.70
39347;DHT22;26262;49.836;6.632;2023-03-01T10:41:53;9.20;94.30
39347;DHT22;26262;49.836;6.632;2023-03-01T10:47:04;9.70;91.90
39347;DHT22;26262;49.836;6.632;2023-03-01T10:49:29;9.80;92.00
39347;DHT22;26262;49.836;6.632;2023-03-01T10:51:55;9.90;91.80
39347;DHT22;26262;49.836;6.632;2023-03-01T10:54:30;10.10;91.30
39347;DHT22;26262;49.836;6.632;2023-03-01T10:56:57;10.20;91.10
39347;DHT22;26262;49.836;6.632;2023-03-01T11:02:13;10.10;90.60
39347;DHT22;26262;49.836;6.632;2023-03-01T11:04:52;10.30;90.40
39347;DHT22;26262;49.836;6.632;2023-03-01T11:07:21;10.60;88.00
39347;DHT22;26262;49.836;6.632;2023-03-01T11:09:46;11.10;87.20
39347;DHT22;26262;49.836;6.632;2023-03-01T11:12:13;11.50;88.10
39347;DHT22;26262;49.836;6.632;2023-03-01T11:14:45;11.80;85.90
39347;DHT22;26262;49.836;6.632;2023-03-01T11:19:36;12.30;83.10
39347;DHT22;26262;49.836;6.632;2023-03-01T11:22:03;12.10;83.50
39347;DHT22;26262;49.836;6.632;2023-03-01T11:27:04;12.60;82.70
39347;DHT22;26262;49.836;6.632;2023-03-01T11:29:35;12.70;81.50
39347;DHT22;26262;49.836;6.632;2023-03-01T11:32:05;12.90;79.50
39347;DHT22;26262;49.836;6.632;2023-03-01T11:37:01;12.40;79.40
39347;DHT22;26262;49.836;6.632;2023-03-01T11:39:31;12.00;80.60
39347;DHT22;26262;49.836;6.632;2023-03-01T11:42:40;12.00;80.00
39347;DHT22;26262;49.836;6.632;2023-03-01T11:44:47;11.90;81.20
39347;DHT22;26262;49.836;6.632;2023-03-01T11:49:51;11.50;81.00
39347;DHT22;26262;49.836;6.632;2023-03-01T11:52:28;11.50;80.20
39347;DHT22;26262;49.836;6.632;2023-03-01T11:59:56;11.60;81.90
39347;DHT22;26262;49.836;6.632;2023-03-01T12:05:20;11.90;80.40
39347;DHT22;26262;49.836;6.632;2023-03-01T12:10:45;11.70;80.00
39347;DHT22;26262;49.836;6.632;2023-03-01T12:13:22;11.80;80.80
39347;DHT22;26262;49.836;6.632;2023-03-01T12:15:52;11.70;80.00
39347;DHT22;26262;49.836;6.632;2023-03-01T12:18:29;12.20;81.40
39347;DHT22;26262;49.836;6.632;2023-03-01T12:21:04;12.40;78.10
39347;DHT22;26262;49.836;6.632;2023-03-01T12:31:00;13.20;76.50
39347;DHT22;26262;49.836;6.632;2023-03-01T12:36:16;13.50;75.00
39347;DHT22;26262;49.836;6.632;2023-03-01T12:38:49;13.50;75.40
39347;DHT22;26262;49.836;6.632;2023-03-01T12:46:19;13.30;76.00
39347;DHT22;26262;49.836;6.632;2023-03-01T12:51:27;14.10;74.10
39347;DHT22;26262;49.836;6.632;2023-03-01T12:53:54;14.00;73.30
39347;DHT22;26262;49.836;6.632;2023-03-01T12:56:24;13.50;74.00
39347;DHT22;26262;49.836;6.632;2023-03-01T12:58:52;13.10;74.40
39347;DHT22;26262;49.836;6.632;2023-03-01T13:06:32;13.40;74.20
39347;DHT22;26262;49.836;6.632;2023-03-01T13:09:05;13.60;75.50
39347;DHT22;26262;49.836;6.632;2023-03-01T13:11:34;13.60;74.90
39347;DHT22;26262;49.836;6.632;2023-03-01T13:16:44;14.50;73.60
39347;DHT22;26262;49.836;6.632;2023-03-01T13:21:39;15.10;71.80
39347;DHT22;26262;49.836;6.632;2023-03-01T13:24:22;14.90;71.20
39347;DHT22;26262;49.836;6.632;2023-03-01T13:29:53;15.30;70.80
39347;DHT22;26262;49.836;6.632;2023-03-01T13:34:50;15.40;69.30
39347;DHT22;26262;49.836;6.632;2023-03-01T13:37:20;15.00;69.70
39347;DHT22;26262;49.836;6.632;2023-03-01T13:39:46;14.20;71.50
39347;DHT22;26262;49.836;6.632;2023-03-01T13:42:45;14.40;71.40
39347;DHT22;26262;49.836;6.632;2023-03-01T13:45:15;14.60;70.90
39347;DHT22;26262;49.836;6.632;2023-03-01T13:47:41;14.90;70.60
39347;DHT22;26262;49.836;6.632;2023-03-01T13:50:07;14.90;68.60
39347;DHT22;26262;49.836;6.632;2023-03-01T13:57:52;15.70;68.40
39347;DHT22;26262;49.836;6.632;2023-03-01T14:03:01;15.80;69.30
39347;DHT22;26262;49.836;6.632;2023-03-01T14:05:27;15.90;68.30
39347;DHT22;26262;49.836;6.632;2023-03-01T14:07:54;15.70;67.60
39347;DHT22;26262;49.836;6.632;2023-03-01T14:10:19;15.40;68.40
39347;DHT22;26262;49.836;6.632;2023-03-01T14:15:45;15.30;68.70
39347;DHT22;26262;49.836;6.632;2023-03-01T14:18:18;15.20;68.40
39347;DHT22;26262;49.836;6.632;2023-03-01T14:20:46;15.30;67.80
39347;DHT22;26262;49.836;6.632;2023-03-01T14:23:21;15.40;69.10
39347;DHT22;26262;49.836;6.632;2023-03-01T14:25:48;15.10;68.80
39347;DHT22;26262;49.836;6.632;2023-03-01T14:33:27;14.80;68.00
39347;DHT22;26262;49.836;6.632;2023-03-01T14:38:23;14.50;68.00
39347;DHT22;26262;49.836;6.632;2023-03-01T14:40:54;14.50;68.70
39347;DHT22;26262;49.836;6.632;2023-03-01T14:43:22;14.50;68.40
39347;DHT22;26262;49.836;6.632;2023-03-01T14:45:48;14.10;69.80
39347;DHT22;26262;49.836;6.632;2023-03-01T14:48:14;13.60;70.00
39347;DHT22;26262;49.836;6.632;2023-03-01T14:50:41;12.80;70.90
39347;DHT22;26262;49.836;6.632;2023-03-01T14:53:07;12.40;71.50
39347;DHT22;26262;49.836;6.632;2023-03-01T14:55:41;12.30;72.60
39347;DHT22;26262;49.836;6.632;2023-03-01T14:58:12;12.10;72.40
39347;DHT22;26262;49.836;6.632;2023-03-01T15:00:38;11.90;72.10
39347;DHT22;26262;49.836;6.632;2023-03-01T15:03:08;11.70;73.80
39347;DHT22;26262;49.836;6.632;2023-03-01T15:05:38;11.50;75.40
39347;DHT22;26262;49.836;6.632;2023-03-01T15:08:04;11.20;73.80
39347;DHT22;26262;49.836;6.632;2023-03-01T15:10:32;11.10;73.70
39347;DHT22;26262;49.836;6.632;2023-03-01T15:13:40;11.00;74.30
39347;DHT22;26262;49.836;6.632;2023-03-01T15:15:46;11.00;74.50
39347;DHT22;26262;49.836;6.632;2023-03-01T15:18:19;11.00;74.80
39347;DHT22;26262;49.836;6.632;2023-03-01T15:20:46;10.70;75.70
39347;DHT22;26262;49.836;6.632;2023-03-01T15:23:33;10.30;74.50
39347;DHT22;26262;49.836;6.632;2023-03-01T15:25:58;10.10;76.30
39347;DHT22;26262;49.836;6.632;2023-03-01T15:28:25;9.70;75.60
39347;DHT22;26262;49.836;6.632;2023-03-01T15:31:34;9.50;75.80
39347;DHT22;26262;49.836;6.632;2023-03-01T15:33:40;9.30;78.00
39347;DHT22;26262;49.836;6.632;2023-03-01T15:38:57;8.70;78.70
39347;DHT22;26262;49.836;6.632;2023-03-01T15:41:24;8.60;77.60
39347;DHT22;26262;49.836;6.632;2023-03-01T15:43:50;8.30;77.90
39347;DHT22;26262;49.836;6.632;2023-03-01T15:48:45;8.20;79.10
39347;DHT22;26262;49.836;6.632;2023-03-01T15:51:11;8.20;79.60
39347;DHT22;26262;49.836;6.632;2023-03-01T15:53:37;8.10;79.10
39347;DHT22;26262;49.836;6.632;2023-03-01T15:56:03;8.10;80.80
39347;DHT22;26262;49.836;6.632;2023-03-01T15:58:28;8.10;82.00
39347;DHT22;26262;49.836;6.632;2023-03-01T16:00:54;8.10;79.90
39347;DHT22;26262;49.836;6.632;2023-03-01T16:03:24;8.00;79.50
39347;DHT22;26262;49.836;6.632;2023-03-01T16:05:50;7.90;80.50
39347;DHT22;26262;49.836;6.632;2023-03-01T16:08:15;7.80;79.10
39347;DHT22;26262;49.836;6.632;2023-03-01T16:10:41;7.80;79.90
39347;DHT22;26262;49.836;6.632;2023-03-01T16:13:10;7.60;79.40
39347;DHT22;26262;49.836;6.632;2023-03-01T16:15:36;7.70;79.30
39347;DHT22;26262;49.836;6.632;2023-03-01T16:18:03;7.70;79.40
39347;DHT22;26262;49.836;6.632;2023-03-01T16:20:30;7.60;79.70
39347;DHT22;26262;49.836;6.632;2023-03-01T16:23:00;7.60;79.30
39347;DHT22;26262;49.836;6.632;2023-03-01T16:25:26;7.50;80.40
39347;DHT22;26262;49.836;6.632;2023-03-01T16:27:51;7.50;81.70
39347;DHT22;26262;49.836;6.632;2023-03-01T16:30:21;7.50;80.90
39347;DHT22;26262;49.836;6.632;2023-03-01T16:32:47;7.50;82.20
39347;DHT22;26262;49.836;6.632;2023-03-01T16:35:14;7.50;81.30
39347;DHT22;26262;49.836;6.632;2023-03-01T16:37:40;7.50;81.30
39347;DHT22;26262;49.836;6.632;2023-03-01T16:40:06;7.50;80.30
39347;DHT22;26262;49.836;6.632;2023-03-01T16:42:33;7.50;82.70
39347;DHT22;26262;49.836;6.632;2023-03-01T16:44:58;7.50;82.50
39347;DHT22;26262;49.836;6.632;2023-03-01T16:47:24;7.40;82.50
39347;DHT22;26262;49.836;6.632;2023-03-01T16:49:52;7.30;82.30
39347;DHT22;26262;49.836;6.632;2023-03-01T16:52:18;7.30;82.40
39347;DHT22;26262;49.836;6.632;2023-03-01T16:54:44;7.30;83.60
39347;DHT22;26262;49.836;6.632;2023-03-01T16:57:09;7.20;84.60
39347;DHT22;26262;49.836;6.632;2023-03-01T16:59:34;7.10;85.00
39347;DHT22;26262;49.836;6.632;2023-03-01T17:02:00;7.10;85.00
39347;DHT22;26262;49.836;6.632;2023-03-01T17:04:25;7.20;85.20
39347;DHT22;26262;49.836;6.632;2023-03-01T17:06:51;7.00;85.80
39347;DHT22;26262;49.836;6.632;2023-03-01T17:09:16;6.60;86.10
39347;DHT22;26262;49.836;6.632;2023-03-01T17:11:42;6.70;87.80
39347;DHT22;26262;49.836;6.632;2023-03-01T17:14:08;6.70;88.90
39347;DHT22;26262;49.836;6.632;2023-03-01T17:16:33;6.70;89.20
39347;DHT22;26262;49.836;6.632;2023-03-01T17:19:00;6.10;89.20
39347;DHT22;26262;49.836;6.632;2023-03-01T17:21:26;5.70;90.90